sensor_id;sensor_type;location;lat;lon;timestamp;P1;durP1;ratioP1;P2;durP2;ratioP2
59054;SDS011;44845;51.444;7.460;2022-09-11T00:01:33;30.02;;;26.35;;
59054;SDS011;44845;51.444;7.460;2022-09-11T00:03:59;33.17;;;26.33;;
59054;SDS011;44845;51.444;7.460;2022-09-11T00:06:25;31.67;;;26.05;;
59054;SDS011;44845;51.444;7.460;2022-09-11T00:08:54;30.85;;;26.77;;
59054;SDS011;44845;51.444;7.460;2022-09-11T00:11:24;35.30;;;27.23;;
59054;SDS011;44845;51.444;7.460;2022-09-11T00:13:49;29.50;;;26.30;;
59054;SDS011;44845;51.444;7.460;2022-09-11T00:18:43;33.08;;;27.85;;
59054;SDS011;44845;51.444;7.460;2022-09-11T00:21:10;31.80;;;27.48;;
59054;SDS011;44845;51.444;7.460;2022-09-11T00:23:35;29.55;;;26.35;;
59054;SDS011;44845;51.444;7.460;2022-09-11T00:26:01;29.80;;;26.15;;
59054;SDS011;44845;51.444;7.460;2022-09-11T00:28:27;35.83;;;27.67;;
59054;SDS011;44845;51.444;7.460;2022-09-11T00:30:56;32.45;;;27.40;;
59054;SDS011;44845;51.444;7.460;2022-09-11T00:33:21;31.95;;;27.50;;
59054;SDS011;44845;51.444;7.460;2022-09-11T00:35:52;32.63;;;27.90;;
59054;SDS011;44845;51.444;7.460;2022-09-11T00:38:17;31.27;;;26.85;;
59054;SDS011;44845;51.444;7.460;2022-09-11T00:40:45;30.08;;;26.88;;
59054;SDS011;44845;51.444;7.460;2022-09-11T00:43:14;32.20;;;27.30;;
59054;SDS011;44845;51.444;7.460;2022-09-11T00:45:40;31.60;;;24.83;;
59054;SDS011;44845;51.444;7.460;2022-09-11T00:48:06;31.05;;;26.35;;
59054;SDS011;44845;51.444;7.460;2022-09-11T00:50:32;32.20;;;28.70;;
59054;SDS011;44845;51.444;7.460;2022-09-11T00:53:01;40.07;;;28.77;;
59054;SDS011;44845;51.444;7.460;2022-09-11T00:55:28;36.90;;;27.38;;
59054;SDS011;44845;51.444;7.460;2022-09-11T00:57:57;33.30;;;29.17;;
59054;SDS011;44845;51.444;7.460;2022-09-11T01:00:23;34.83;;;28.48;;
59054;SDS011;44845;51.444;7.460;2022-09-11T01:02:48;35.13;;;28.40;;
59054;SDS011;44845;51.444;7.460;2022-09-11T01:05:15;35.25;;;27.40;;
59054;SDS011;44845;51.444;7.460;2022-09-11T01:07:41;31.38;;;26.60;;
59054;SDS011;44845;51.444;7.460;2022-09-11T01:10:07;30.08;;;25.73;;
59054;SDS011;44845;51.444;7.460;2022-09-11T01:15:35;31.85;;;26.05;;
59054;SDS011;44845;51.444;7.460;2022-09-11T01:20:44;32.10;;;26.05;;
59054;SDS011;44845;51.444;7.460;2022-09-11T01:26:37;30.08;;;25.75;;
59054;SDS011;44845;51.444;7.460;2022-09-11T01:28:35;33.33;;;24.85;;
59054;SDS011;44845;51.444;7.460;2022-09-11T01:31:05;31.33;;;26.50;;
59054;SDS011;44845;51.444;7.460;2022-09-11T01:33:41;32.00;;;27.38;;
59054;SDS011;44845;51.444;7.460;2022-09-11T01:36:09;29.83;;;26.02;;
59054;SDS011;44845;51.444;7.460;2022-09-11T01:38:37;31.65;;;26.80;;
59054;SDS011;44845;51.444;7.460;2022-09-11T01:43:31;34.03;;;27.90;;
59054;SDS011;44845;51.444;7.460;2022-09-11T01:45:58;31.67;;;25.85;;
59054;SDS011;44845;51.444;7.460;2022-09-11T01:48:26;32.97;;;26.45;;
59054;SDS011;44845;51.444;7.460;2022-09-11T01:50:53;34.53;;;28.58;;
59054;SDS011;44845;51.444;7.460;2022-09-11T01:53:21;37.85;;;29.58;;
59054;SDS011;44845;51.444;7.460;2022-09-11T01:55:50;34.30;;;27.02;;
59054;SDS011;44845;51.444;7.460;2022-09-11T01:58:20;36.20;;;28.33;;
59054;SDS011;44845;51.444;7.460;2022-09-11T02:00:46;39.55;;;29.83;;
59054;SDS011;44845;51.444;7.460;2022-09-11T02:03:18;32.55;;;27.63;;
59054;SDS011;44845;51.444;7.460;2022-09-11T02:05:48;34.50;;;28.45;;
59054;SDS011;44845;51.444;7.460;2022-09-11T02:08:19;40.78;;;30.13;;
59054;SDS011;44845;51.444;7.460;2022-09-11T02:10:46;37.50;;;30.00;;
59054;SDS011;44845;51.444;7.460;2022-09-11T02:13:14;37.85;;;29.92;;
59054;SDS011;44845;51.444;7.460;2022-09-11T02:15:41;43.67;;;32.60;;
59054;SDS011;44845;51.444;7.460;2022-09-11T02:18:18;41.50;;;33.13;;
59054;SDS011;44845;51.444;7.460;2022-09-11T02:20:44;46.15;;;34.85;;
59054;SDS011;44845;51.444;7.460;2022-09-11T02:23:11;41.95;;;33.13;;
59054;SDS011;44845;51.444;7.460;2022-09-11T02:25:36;44.63;;;33.97;;
59054;SDS011;44845;51.444;7.460;2022-09-11T02:28:01;42.17;;;33.07;;
59054;SDS011;44845;51.444;7.460;2022-09-11T02:30:27;42.00;;;32.47;;
59054;SDS011;44845;51.444;7.460;2022-09-11T02:32:53;45.80;;;34.08;;
59054;SDS011;44845;51.444;7.460;2022-09-11T02:35:18;44.40;;;34.15;;
59054;SDS011;44845;51.444;7.460;2022-09-11T02:38:20;43.63;;;34.30;;
59054;SDS011;44845;51.444;7.460;2022-09-11T02:40:42;44.10;;;33.10;;
59054;SDS011;44845;51.444;7.460;2022-09-11T02:45:39;43.10;;;33.00;;
59054;SDS011;44845;51.444;7.460;2022-09-11T02:48:16;44.92;;;32.50;;
59054;SDS011;44845;51.444;7.460;2022-09-11T02:59:03;41.50;;;32.35;;
59054;SDS011;44845;51.444;7.460;2022-09-11T03:01:29;46.70;;;35.20;;
59054;SDS011;44845;51.444;7.460;2022-09-11T03:03:55;47.92;;;34.03;;
59054;SDS011;44845;51.444;7.460;2022-09-11T03:06:21;47.03;;;34.60;;
59054;SDS011;44845;51.444;7.460;2022-09-11T03:08:47;47.50;;;35.42;;
59054;SDS011;44845;51.444;7.460;2022-09-11T03:11:12;50.40;;;35.05;;
59054;SDS011;44845;51.444;7.460;2022-09-11T03:13:41;46.72;;;35.15;;
59054;SDS011;44845;51.444;7.460;2022-09-11T03:16:07;48.90;;;35.38;;
59054;SDS011;44845;51.444;7.460;2022-09-11T03:18:33;46.90;;;34.72;;
59054;SDS011;44845;51.444;7.460;2022-09-11T03:20:58;48.47;;;36.05;;
59054;SDS011;44845;51.444;7.460;2022-09-11T03:23:23;49.45;;;36.13;;
59054;SDS011;44845;51.444;7.460;2022-09-11T03:25:49;51.25;;;34.97;;
59054;SDS011;44845;51.444;7.460;2022-09-11T03:28:14;43.30;;;34.38;;
59054;SDS011;44845;51.444;7.460;2022-09-11T03:30:39;47.28;;;34.42;;
59054;SDS011;44845;51.444;7.460;2022-09-11T03:33:07;45.33;;;34.10;;
59054;SDS011;44845;51.444;7.460;2022-09-11T03:35:33;45.33;;;34.47;;
59054;SDS011;44845;51.444;7.460;2022-09-11T03:37:58;50.17;;;36.92;;
59054;SDS011;44845;51.444;7.460;2022-09-11T03:40:24;47.13;;;35.72;;
59054;SDS011;44845;51.444;7.460;2022-09-11T03:42:49;48.83;;;34.72;;
59054;SDS011;44845;51.444;7.460;2022-09-11T03:45:14;50.23;;;35.20;;
59054;SDS011;44845;51.444;7.460;2022-09-11T03:47:40;46.90;;;34.40;;
59054;SDS011;44845;51.444;7.460;2022-09-11T03:50:06;47.92;;;34.15;;
59054;SDS011;44845;51.444;7.460;2022-09-11T03:52:31;46.42;;;34.67;;
59054;SDS011;44845;51.444;7.460;2022-09-11T03:54:56;45.53;;;33.22;;
59054;SDS011;44845;51.444;7.460;2022-09-11T03:57:22;44.15;;;32.60;;
59054;SDS011;44845;51.444;7.460;2022-09-11T03:59:47;44.60;;;32.17;;
59054;SDS011;44845;51.444;7.460;2022-09-11T04:02:12;43.25;;;32.33;;
59054;SDS011;44845;51.444;7.460;2022-09-11T04:04:37;47.13;;;33.65;;
59054;SDS011;44845;51.444;7.460;2022-09-11T04:07:02;45.13;;;33.92;;
59054;SDS011;44845;51.444;7.460;2022-09-11T04:09:27;50.40;;;33.37;;
59054;SDS011;44845;51.444;7.460;2022-09-11T04:11:53;46.37;;;33.83;;
59054;SDS011;44845;51.444;7.460;2022-09-11T04:14:18;45.38;;;33.15;;
59054;SDS011;44845;51.444;7.460;2022-09-11T04:16:43;43.42;;;32.40;;
59054;SDS011;44845;51.444;7.460;2022-09-11T04:19:08;44.20;;;32.40;;
59054;SDS011;44845;51.444;7.460;2022-09-11T04:21:34;49.55;;;33.00;;
59054;SDS011;44845;51.444;7.460;2022-09-11T04:23:59;57.90;;;37.88;;
59054;SDS011;44845;51.444;7.460;2022-09-11T04:26:25;51.20;;;35.40;;
59054;SDS011;44845;51.444;7.460;2022-09-11T04:28:51;50.85;;;35.35;;
59054;SDS011;44845;51.444;7.460;2022-09-11T04:31:17;55.60;;;37.23;;
59054;SDS011;44845;51.444;7.460;2022-09-11T04:33:42;62.75;;;39.65;;
59054;SDS011;44845;51.444;7.460;2022-09-11T04:36:09;59.55;;;38.15;;
59054;SDS011;44845;51.444;7.460;2022-09-11T04:38:34;60.92;;;37.83;;
59054;SDS011;44845;51.444;7.460;2022-09-11T04:41:00;67.13;;;40.88;;
59054;SDS011;44845;51.444;7.460;2022-09-11T04:43:25;67.47;;;39.88;;
59054;SDS011;44845;51.444;7.460;2022-09-11T04:45:51;77.88;;;43.03;;
59054;SDS011;44845;51.444;7.460;2022-09-11T04:48:18;75.10;;;43.55;;
59054;SDS011;44845;51.444;7.460;2022-09-11T04:50:43;80.27;;;46.43;;
59054;SDS011;44845;51.444;7.460;2022-09-11T04:53:08;75.27;;;44.43;;
59054;SDS011;44845;51.444;7.460;2022-09-11T04:55:33;82.43;;;45.23;;
59054;SDS011;44845;51.444;7.460;2022-09-11T04:57:58;77.30;;;41.97;;
59054;SDS011;44845;51.444;7.460;2022-09-11T05:00:23;75.10;;;43.77;;
59054;SDS011;44845;51.444;7.460;2022-09-11T05:02:49;79.67;;;45.43;;
59054;SDS011;44845;51.444;7.460;2022-09-11T05:05:14;78.30;;;47.17;;
59054;SDS011;44845;51.444;7.460;2022-09-11T05:07:39;81.53;;;46.03;;
59054;SDS011;44845;51.444;7.460;2022-09-11T05:10:04;79.65;;;45.40;;
59054;SDS011;44845;51.444;7.460;2022-09-11T05:12:30;84.00;;;44.80;;
59054;SDS011;44845;51.444;7.460;2022-09-11T05:14:55;78.80;;;45.42;;
59054;SDS011;44845;51.444;7.460;2022-09-11T05:17:21;107.40;;;52.40;;
59054;SDS011;44845;51.444;7.460;2022-09-11T05:19:46;97.68;;;50.95;;
59054;SDS011;44845;51.444;7.460;2022-09-11T05:22:11;105.20;;;53.15;;
59054;SDS011;44845;51.444;7.460;2022-09-11T05:24:36;105.00;;;51.90;;
59054;SDS011;44845;51.444;7.460;2022-09-11T05:27:01;95.67;;;48.33;;
59054;SDS011;44845;51.444;7.460;2022-09-11T05:29:26;99.40;;;50.03;;
59054;SDS011;44845;51.444;7.460;2022-09-11T05:31:55;90.85;;;46.90;;
59054;SDS011;44845;51.444;7.460;2022-09-11T05:34:22;105.45;;;52.75;;
59054;SDS011;44845;51.444;7.460;2022-09-11T05:36:48;101.28;;;50.20;;
59054;SDS011;44845;51.444;7.460;2022-09-11T05:39:13;95.73;;;47.80;;
59054;SDS011;44845;51.444;7.460;2022-09-11T05:41:38;95.68;;;48.92;;
59054;SDS011;44845;51.444;7.460;2022-09-11T05:44:03;102.57;;;49.78;;
59054;SDS011;44845;51.444;7.460;2022-09-11T05:46:28;96.37;;;48.20;;
59054;SDS011;44845;51.444;7.460;2022-09-11T05:48:54;101.95;;;48.60;;
59054;SDS011;44845;51.444;7.460;2022-09-11T05:51:19;109.25;;;51.00;;
59054;SDS011;44845;51.444;7.460;2022-09-11T05:53:45;111.28;;;50.92;;
59054;SDS011;44845;51.444;7.460;2022-09-11T05:56:14;103.28;;;48.72;;
59054;SDS011;44845;51.444;7.460;2022-09-11T05:58:40;111.32;;;50.58;;
59054;SDS011;44845;51.444;7.460;2022-09-11T06:01:09;107.07;;;49.60;;
59054;SDS011;44845;51.444;7.460;2022-09-11T06:03:35;108.30;;;50.15;;
59054;SDS011;44845;51.444;7.460;2022-09-11T06:06:01;108.70;;;49.50;;
59054;SDS011;44845;51.444;7.460;2022-09-11T06:08:27;101.78;;;48.25;;
59054;SDS011;44845;51.444;7.460;2022-09-11T06:10:52;115.30;;;50.35;;
59054;SDS011;44845;51.444;7.460;2022-09-11T06:13:17;104.35;;;48.83;;
59054;SDS011;44845;51.444;7.460;2022-09-11T06:15:46;104.80;;;49.42;;
59054;SDS011;44845;51.444;7.460;2022-09-11T06:18:12;100.65;;;48.00;;
59054;SDS011;44845;51.444;7.460;2022-09-11T06:20:37;109.50;;;48.70;;
59054;SDS011;44845;51.444;7.460;2022-09-11T06:23:02;101.83;;;48.60;;
59054;SDS011;44845;51.444;7.460;2022-09-11T06:25:27;97.60;;;47.50;;
59054;SDS011;44845;51.444;7.460;2022-09-11T06:27:52;95.50;;;46.92;;
59054;SDS011;44845;51.444;7.460;2022-09-11T06:30:18;100.72;;;47.40;;
59054;SDS011;44845;51.444;7.460;2022-09-11T06:32:46;91.32;;;45.95;;
59054;SDS011;44845;51.444;7.460;2022-09-11T06:35:11;94.47;;;46.05;;
59054;SDS011;44845;51.444;7.460;2022-09-11T06:37:36;93.23;;;45.87;;
59054;SDS011;44845;51.444;7.460;2022-09-11T06:40:02;89.53;;;43.63;;
59054;SDS011;44845;51.444;7.460;2022-09-11T06:42:27;88.32;;;43.97;;
59054;SDS011;44845;51.444;7.460;2022-09-11T06:44:53;88.88;;;42.80;;
59054;SDS011;44845;51.444;7.460;2022-09-11T06:47:18;86.60;;;44.00;;
59054;SDS011;44845;51.444;7.460;2022-09-11T06:49:44;83.15;;;44.05;;
59054;SDS011;44845;51.444;7.460;2022-09-11T06:52:09;83.75;;;43.83;;
59054;SDS011;44845;51.444;7.460;2022-09-11T06:54:34;78.53;;;41.97;;
59054;SDS011;44845;51.444;7.460;2022-09-11T06:57:00;86.60;;;44.50;;
59054;SDS011;44845;51.444;7.460;2022-09-11T06:59:25;82.40;;;44.53;;
59054;SDS011;44845;51.444;7.460;2022-09-11T07:01:50;85.80;;;44.13;;
59054;SDS011;44845;51.444;7.460;2022-09-11T07:04:15;81.53;;;43.63;;
59054;SDS011;44845;51.444;7.460;2022-09-11T07:06:40;70.05;;;42.60;;
59054;SDS011;44845;51.444;7.460;2022-09-11T07:09:05;74.10;;;43.42;;
59054;SDS011;44845;51.444;7.460;2022-09-11T07:11:31;73.38;;;42.22;;
59054;SDS011;44845;51.444;7.460;2022-09-11T07:13:57;73.68;;;42.60;;
59054;SDS011;44845;51.444;7.460;2022-09-11T07:16:23;75.65;;;44.78;;
59054;SDS011;44845;51.444;7.460;2022-09-11T07:18:48;77.87;;;43.97;;
59054;SDS011;44845;51.444;7.460;2022-09-11T07:21:14;75.47;;;43.75;;
59054;SDS011;44845;51.444;7.460;2022-09-11T07:23:40;74.50;;;44.72;;
59054;SDS011;44845;51.444;7.460;2022-09-11T07:26:10;73.75;;;43.33;;
59054;SDS011;44845;51.444;7.460;2022-09-11T07:28:35;69.38;;;41.70;;
59054;SDS011;44845;51.444;7.460;2022-09-11T07:31:20;68.88;;;41.85;;
59054;SDS011;44845;51.444;7.460;2022-09-11T07:33:47;70.28;;;42.38;;
59054;SDS011;44845;51.444;7.460;2022-09-11T07:36:13;66.57;;;41.35;;
59054;SDS011;44845;51.444;7.460;2022-09-11T07:38:39;74.47;;;43.70;;
59054;SDS011;44845;51.444;7.460;2022-09-11T07:41:05;74.40;;;44.30;;
59054;SDS011;44845;51.444;7.460;2022-09-11T07:43:30;65.72;;;40.67;;
59054;SDS011;44845;51.444;7.460;2022-09-11T07:45:55;74.32;;;41.95;;
59054;SDS011;44845;51.444;7.460;2022-09-11T07:48:20;69.40;;;41.60;;
59054;SDS011;44845;51.444;7.460;2022-09-11T07:50:58;77.27;;;42.73;;
59054;SDS011;44845;51.444;7.460;2022-09-11T07:53:26;68.53;;;42.00;;
59054;SDS011;44845;51.444;7.460;2022-09-11T07:55:52;78.95;;;44.92;;
59054;SDS011;44845;51.444;7.460;2022-09-11T07:58:17;74.10;;;42.88;;
59054;SDS011;44845;51.444;7.460;2022-09-11T08:00:42;69.70;;;42.20;;
59054;SDS011;44845;51.444;7.460;2022-09-11T08:03:09;65.82;;;39.20;;
59054;SDS011;44845;51.444;7.460;2022-09-11T08:05:34;72.55;;;42.85;;
59054;SDS011;44845;51.444;7.460;2022-09-11T08:08:00;68.03;;;41.13;;
59054;SDS011;44845;51.444;7.460;2022-09-11T08:10:25;67.63;;;39.77;;
59054;SDS011;44845;51.444;7.460;2022-09-11T08:12:50;73.93;;;42.38;;
59054;SDS011;44845;51.444;7.460;2022-09-11T08:15:16;64.80;;;38.33;;
59054;SDS011;44845;51.444;7.460;2022-09-11T08:17:41;61.72;;;38.90;;
59054;SDS011;44845;51.444;7.460;2022-09-11T08:20:06;58.97;;;37.43;;
59054;SDS011;44845;51.444;7.460;2022-09-11T08:22:32;66.72;;;38.50;;
59054;SDS011;44845;51.444;7.460;2022-09-11T08:24:57;57.38;;;35.70;;
59054;SDS011;44845;51.444;7.460;2022-09-11T08:27:23;59.35;;;36.95;;
59054;SDS011;44845;51.444;7.460;2022-09-11T08:29:48;54.00;;;33.50;;
59054;SDS011;44845;51.444;7.460;2022-09-11T08:32:13;57.38;;;36.40;;
59054;SDS011;44845;51.444;7.460;2022-09-11T08:34:38;57.30;;;35.03;;
59054;SDS011;44845;51.444;7.460;2022-09-11T08:37:03;57.30;;;35.88;;
59054;SDS011;44845;51.444;7.460;2022-09-11T08:39:29;60.90;;;37.27;;
59054;SDS011;44845;51.444;7.460;2022-09-11T08:41:58;59.50;;;35.47;;
59054;SDS011;44845;51.444;7.460;2022-09-11T08:44:29;57.83;;;37.28;;
59054;SDS011;44845;51.444;7.460;2022-09-11T08:47:09;54.80;;;35.08;;
59054;SDS011;44845;51.444;7.460;2022-09-11T08:49:41;59.28;;;36.75;;
59054;SDS011;44845;51.444;7.460;2022-09-11T08:52:07;59.72;;;35.95;;
59054;SDS011;44845;51.444;7.460;2022-09-11T08:54:35;58.17;;;36.20;;
59054;SDS011;44845;51.444;7.460;2022-09-11T09:02:20;56.53;;;35.42;;
59054;SDS011;44845;51.444;7.460;2022-09-11T09:10:25;51.65;;;31.85;;
59054;SDS011;44845;51.444;7.460;2022-09-11T09:20:57;58.10;;;37.03;;
59054;SDS011;44845;51.444;7.460;2022-09-11T09:23:26;55.40;;;35.60;;
59054;SDS011;44845;51.444;7.460;2022-09-11T09:25:53;53.38;;;34.75;;
59054;SDS011;44845;51.444;7.460;2022-09-11T09:28:20;57.30;;;35.25;;
59054;SDS011;44845;51.444;7.460;2022-09-11T09:30:55;50.75;;;34.17;;
59054;SDS011;44845;51.444;7.460;2022-09-11T09:33:31;46.80;;;30.60;;
59054;SDS011;44845;51.444;7.460;2022-09-11T09:36:20;47.30;;;31.98;;
59054;SDS011;44845;51.444;7.460;2022-09-11T09:38:44;53.20;;;32.80;;
59054;SDS011;44845;51.444;7.460;2022-09-11T09:44:04;44.72;;;31.33;;
59054;SDS011;44845;51.444;7.460;2022-09-11T09:46:39;43.92;;;30.42;;
59054;SDS011;44845;51.444;7.460;2022-09-11T09:49:06;45.53;;;30.15;;
59054;SDS011;44845;51.444;7.460;2022-09-11T09:51:31;50.75;;;32.78;;
59054;SDS011;44845;51.444;7.460;2022-09-11T09:53:58;46.57;;;32.17;;
59054;SDS011;44845;51.444;7.460;2022-09-11T09:56:24;45.25;;;30.83;;
59054;SDS011;44845;51.444;7.460;2022-09-11T09:58:55;46.55;;;31.27;;
59054;SDS011;44845;51.444;7.460;2022-09-11T10:01:40;46.17;;;30.67;;
59054;SDS011;44845;51.444;7.460;2022-09-11T10:04:22;40.75;;;29.02;;
59054;SDS011;44845;51.444;7.460;2022-09-11T10:06:49;43.63;;;30.10;;
59054;SDS011;44845;51.444;7.460;2022-09-11T10:09:26;46.40;;;30.38;;
59054;SDS011;44845;51.444;7.460;2022-09-11T10:11:59;37.22;;;27.48;;
59054;SDS011;44845;51.444;7.460;2022-09-11T10:14:26;43.35;;;27.90;;
59054;SDS011;44845;51.444;7.460;2022-09-11T10:16:52;41.70;;;28.40;;
59054;SDS011;44845;51.444;7.460;2022-09-11T10:19:40;41.55;;;28.10;;
59054;SDS011;44845;51.444;7.460;2022-09-11T10:22:39;40.40;;;27.17;;
59054;SDS011;44845;51.444;7.460;2022-09-11T10:25:07;40.58;;;28.52;;
59054;SDS011;44845;51.444;7.460;2022-09-11T10:27:34;39.17;;;28.60;;
59054;SDS011;44845;51.444;7.460;2022-09-11T10:30:03;40.72;;;27.92;;
59054;SDS011;44845;51.444;7.460;2022-09-11T10:32:28;38.40;;;27.17;;
59054;SDS011;44845;51.444;7.460;2022-09-11T10:34:53;40.65;;;28.98;;
59054;SDS011;44845;51.444;7.460;2022-09-11T10:37:21;42.92;;;27.58;;
59054;SDS011;44845;51.444;7.460;2022-09-11T10:39:47;38.80;;;26.95;;
59054;SDS011;44845;51.444;7.460;2022-09-11T10:42:25;40.05;;;27.70;;
59054;SDS011;44845;51.444;7.460;2022-09-11T10:44:52;42.25;;;27.23;;
59054;SDS011;44845;51.444;7.460;2022-09-11T10:49:46;41.72;;;28.60;;
59054;SDS011;44845;51.444;7.460;2022-09-11T10:54:38;41.95;;;28.42;;
59054;SDS011;44845;51.444;7.460;2022-09-11T10:57:10;43.28;;;28.73;;
59054;SDS011;44845;51.444;7.460;2022-09-11T11:10:27;40.35;;;28.38;;
59054;SDS011;44845;51.444;7.460;2022-09-11T11:20:51;40.42;;;26.17;;
59054;SDS011;44845;51.444;7.460;2022-09-11T11:23:38;43.45;;;29.35;;
59054;SDS011;44845;51.444;7.460;2022-09-11T11:26:18;38.88;;;26.38;;
59054;SDS011;44845;51.444;7.460;2022-09-11T11:28:58;38.83;;;27.52;;
59054;SDS011;44845;51.444;7.460;2022-09-11T11:31:34;38.13;;;25.67;;
59054;SDS011;44845;51.444;7.460;2022-09-11T11:36:27;38.90;;;26.70;;
59054;SDS011;44845;51.444;7.460;2022-09-11T11:39:00;42.65;;;28.77;;
59054;SDS011;44845;51.444;7.460;2022-09-11T11:41:28;41.83;;;27.80;;
59054;SDS011;44845;51.444;7.460;2022-09-11T11:43:54;40.03;;;28.20;;
59054;SDS011;44845;51.444;7.460;2022-09-11T11:46:26;39.47;;;28.88;;
59054;SDS011;44845;51.444;7.460;2022-09-11T11:51:24;45.03;;;29.88;;
59054;SDS011;44845;51.444;7.460;2022-09-11T11:53:53;41.75;;;28.55;;
59054;SDS011;44845;51.444;7.460;2022-09-11T12:01:53;45.80;;;29.88;;
59054;SDS011;44845;51.444;7.460;2022-09-11T12:04:31;42.03;;;30.10;;
59054;SDS011;44845;51.444;7.460;2022-09-11T12:06:58;39.83;;;28.45;;
59054;SDS011;44845;51.444;7.460;2022-09-11T12:09:24;50.75;;;33.65;;
59054;SDS011;44845;51.444;7.460;2022-09-11T12:11:51;46.22;;;32.65;;
59054;SDS011;44845;51.444;7.460;2022-09-11T12:14:39;48.47;;;32.28;;
59054;SDS011;44845;51.444;7.460;2022-09-11T12:17:16;47.65;;;32.30;;
59054;SDS011;44845;51.444;7.460;2022-09-11T12:22:31;42.80;;;29.42;;
59054;SDS011;44845;51.444;7.460;2022-09-11T12:24:57;45.72;;;29.02;;
59054;SDS011;44845;51.444;7.460;2022-09-11T12:30:06;41.60;;;28.27;;
59054;SDS011;44845;51.444;7.460;2022-09-11T12:32:44;40.88;;;28.92;;
59054;SDS011;44845;51.444;7.460;2022-09-11T12:35:17;42.63;;;29.73;;
59054;SDS011;44845;51.444;7.460;2022-09-11T12:37:45;39.22;;;29.17;;
59054;SDS011;44845;51.444;7.460;2022-09-11T12:40:21;39.03;;;26.80;;
59054;SDS011;44845;51.444;7.460;2022-09-11T12:42:57;38.00;;;28.30;;
59054;SDS011;44845;51.444;7.460;2022-09-11T12:45:33;36.55;;;25.42;;
59054;SDS011;44845;51.444;7.460;2022-09-11T12:48:02;34.78;;;25.75;;
59054;SDS011;44845;51.444;7.460;2022-09-11T12:50:28;34.53;;;25.58;;
59054;SDS011;44845;51.444;7.460;2022-09-11T12:52:53;32.33;;;24.02;;
59054;SDS011;44845;51.444;7.460;2022-09-11T12:55:38;37.20;;;25.20;;
59054;SDS011;44845;51.444;7.460;2022-09-11T12:58:20;31.40;;;24.05;;
59054;SDS011;44845;51.444;7.460;2022-09-11T13:00:49;28.45;;;21.63;;
59054;SDS011;44845;51.444;7.460;2022-09-11T13:03:17;30.45;;;23.85;;
59054;SDS011;44845;51.444;7.460;2022-09-11T13:05:43;31.20;;;23.13;;
59054;SDS011;44845;51.444;7.460;2022-09-11T13:08:17;27.05;;;21.33;;
59054;SDS011;44845;51.444;7.460;2022-09-11T13:10:43;25.35;;;21.02;;
59054;SDS011;44845;51.444;7.460;2022-09-11T13:13:37;29.63;;;22.77;;
59054;SDS011;44845;51.444;7.460;2022-09-11T13:18:46;28.55;;;22.48;;
59054;SDS011;44845;51.444;7.460;2022-09-11T13:21:13;30.05;;;23.90;;
59054;SDS011;44845;51.444;7.460;2022-09-11T13:23:38;27.55;;;22.58;;
59054;SDS011;44845;51.444;7.460;2022-09-11T13:26:06;30.88;;;23.35;;
59054;SDS011;44845;51.444;7.460;2022-09-11T13:28:35;32.67;;;24.05;;
59054;SDS011;44845;51.444;7.460;2022-09-11T13:31:11;26.95;;;21.67;;
59054;SDS011;44845;51.444;7.460;2022-09-11T13:33:38;27.88;;;22.02;;
59054;SDS011;44845;51.444;7.460;2022-09-11T13:36:04;28.73;;;22.70;;
59054;SDS011;44845;51.444;7.460;2022-09-11T13:38:33;28.08;;;22.85;;
59054;SDS011;44845;51.444;7.460;2022-09-11T13:41:01;27.50;;;21.75;;
59054;SDS011;44845;51.444;7.460;2022-09-11T13:43:31;27.10;;;22.08;;
59054;SDS011;44845;51.444;7.460;2022-09-11T13:46:09;27.90;;;23.55;;
59054;SDS011;44845;51.444;7.460;2022-09-11T13:48:34;29.40;;;22.52;;
59054;SDS011;44845;51.444;7.460;2022-09-11T13:51:00;29.77;;;22.88;;
59054;SDS011;44845;51.444;7.460;2022-09-11T13:53:28;27.10;;;22.52;;
59054;SDS011;44845;51.444;7.460;2022-09-11T13:55:54;24.40;;;20.40;;
59054;SDS011;44845;51.444;7.460;2022-09-11T13:58:23;27.77;;;21.13;;
59054;SDS011;44845;51.444;7.460;2022-09-11T14:00:49;26.10;;;21.17;;
59054;SDS011;44845;51.444;7.460;2022-09-11T14:05:46;29.07;;;22.60;;
59054;SDS011;44845;51.444;7.460;2022-09-11T14:08:28;30.85;;;22.83;;
59054;SDS011;44845;51.444;7.460;2022-09-11T14:10:57;25.42;;;20.65;;
59054;SDS011;44845;51.444;7.460;2022-09-11T14:13:25;25.85;;;20.10;;
59054;SDS011;44845;51.444;7.460;2022-09-11T14:15:54;28.00;;;21.20;;
59054;SDS011;44845;51.444;7.460;2022-09-11T14:18:31;26.00;;;21.10;;
59054;SDS011;44845;51.444;7.460;2022-09-11T14:20:58;24.80;;;20.30;;
59054;SDS011;44845;51.444;7.460;2022-09-11T14:23:25;27.45;;;21.02;;
59054;SDS011;44845;51.444;7.460;2022-09-11T14:28:32;24.65;;;20.40;;
59054;SDS011;44845;51.444;7.460;2022-09-11T14:31:06;25.13;;;19.60;;
59054;SDS011;44845;51.444;7.460;2022-09-11T14:33:32;23.02;;;19.55;;
59054;SDS011;44845;51.444;7.460;2022-09-11T14:36:00;25.90;;;20.40;;
59054;SDS011;44845;51.444;7.460;2022-09-11T14:38:26;28.38;;;22.40;;
59054;SDS011;44845;51.444;7.460;2022-09-11T14:40:55;26.47;;;20.63;;
59054;SDS011;44845;51.444;7.460;2022-09-11T14:43:24;25.10;;;20.70;;
59054;SDS011;44845;51.444;7.460;2022-09-11T14:45:49;24.40;;;19.63;;
59054;SDS011;44845;51.444;7.460;2022-09-11T14:48:15;21.58;;;18.23;;
59054;SDS011;44845;51.444;7.460;2022-09-11T14:50:40;25.37;;;19.20;;
59054;SDS011;44845;51.444;7.460;2022-09-11T14:53:08;24.73;;;19.13;;
59054;SDS011;44845;51.444;7.460;2022-09-11T14:55:36;22.95;;;18.27;;
59054;SDS011;44845;51.444;7.460;2022-09-11T14:58:01;25.67;;;19.70;;
59054;SDS011;44845;51.444;7.460;2022-09-11T15:00:27;23.95;;;18.77;;
59054;SDS011;44845;51.444;7.460;2022-09-11T15:02:55;24.35;;;18.33;;
59054;SDS011;44845;51.444;7.460;2022-09-11T15:05:20;20.43;;;16.13;;
59054;SDS011;44845;51.444;7.460;2022-09-11T15:07:48;23.25;;;18.38;;
59054;SDS011;44845;51.444;7.460;2022-09-11T15:10:13;22.53;;;16.93;;
59054;SDS011;44845;51.444;7.460;2022-09-11T15:12:39;21.37;;;17.80;;
59054;SDS011;44845;51.444;7.460;2022-09-11T15:15:04;21.20;;;17.83;;
59054;SDS011;44845;51.444;7.460;2022-09-11T15:17:29;24.73;;;17.50;;
59054;SDS011;44845;51.444;7.460;2022-09-11T15:19:55;25.77;;;17.98;;
59054;SDS011;44845;51.444;7.460;2022-09-11T15:22:22;17.13;;;14.43;;
59054;SDS011;44845;51.444;7.460;2022-09-11T15:24:47;18.13;;;13.50;;
59054;SDS011;44845;51.444;7.460;2022-09-11T15:27:12;19.08;;;13.88;;
59054;SDS011;44845;51.444;7.460;2022-09-11T15:29:38;16.27;;;13.15;;
59054;SDS011;44845;51.444;7.460;2022-09-11T15:32:06;18.10;;;13.60;;
59054;SDS011;44845;51.444;7.460;2022-09-11T15:34:33;17.63;;;13.13;;
59054;SDS011;44845;51.444;7.460;2022-09-11T15:36:58;17.67;;;12.70;;
59054;SDS011;44845;51.444;7.460;2022-09-11T15:39:24;14.10;;;11.80;;
59054;SDS011;44845;51.444;7.460;2022-09-11T15:41:50;17.20;;;12.05;;
59054;SDS011;44845;51.444;7.460;2022-09-11T15:44:19;12.53;;;11.17;;
59054;SDS011;44845;51.444;7.460;2022-09-11T15:46:44;16.40;;;12.35;;
59054;SDS011;44845;51.444;7.460;2022-09-11T15:49:10;14.48;;;12.32;;
59054;SDS011;44845;51.444;7.460;2022-09-11T15:51:35;15.27;;;11.93;;
59054;SDS011;44845;51.444;7.460;2022-09-11T15:54:00;15.13;;;12.20;;
59054;SDS011;44845;51.444;7.460;2022-09-11T15:56:26;12.45;;;11.15;;
59054;SDS011;44845;51.444;7.460;2022-09-11T15:58:52;17.25;;;12.25;;